地図

経路データ

SID SEASON NUMBER BASIN SUBBASIN NAME ISO_TIME NATURE LAT LON WMO_WIND WMO_PRES WMO_AGENCY TRACK_TYPE DIST2LAND LANDFALL IFLAG USA_AGENCY USA_ATCF_ID USA_LAT USA_LON USA_RECORD USA_STATUS USA_WIND USA_PRES USA_SSHS USA_R34_NE USA_R34_SE USA_R34_SW USA_R34_NW USA_R50_NE USA_R50_SE USA_R50_SW USA_R50_NW USA_R64_NE USA_R64_SE USA_R64_SW USA_R64_NW USA_POCI USA_ROCI USA_RMW USA_EYE TOKYO_LAT TOKYO_LON TOKYO_GRADE TOKYO_WIND TOKYO_PRES TOKYO_R50_DIR TOKYO_R50_LONG TOKYO_R50_SHORT TOKYO_R30_DIR TOKYO_R30_LONG TOKYO_R30_SHORT TOKYO_LAND CMA_LAT CMA_LON CMA_CAT CMA_WIND CMA_PRES HKO_LAT HKO_LON HKO_CAT HKO_WIND HKO_PRES NEWDELHI_LAT NEWDELHI_LON NEWDELHI_GRADE NEWDELHI_WIND NEWDELHI_PRES NEWDELHI_CI NEWDELHI_DP NEWDELHI_POCI REUNION_LAT REUNION_LON REUNION_TYPE REUNION_WIND REUNION_PRES REUNION_TNUM REUNION_CI REUNION_RMW REUNION_R34_NE REUNION_R34_SE REUNION_R34_SW REUNION_R34_NW REUNION_R50_NE REUNION_R50_SE REUNION_R50_SW REUNION_R50_NW REUNION_R64_NE REUNION_R64_SE REUNION_R64_SW REUNION_R64_NW BOM_LAT BOM_LON BOM_TYPE BOM_WIND BOM_PRES BOM_TNUM BOM_CI BOM_RMW BOM_R34_NE BOM_R34_SE BOM_R34_SW BOM_R34_NW BOM_R50_NE BOM_R50_SE BOM_R50_SW BOM_R50_NW BOM_R64_NE BOM_R64_SE BOM_R64_SW BOM_R64_NW BOM_ROCI BOM_POCI BOM_EYE BOM_POS_METHOD BOM_PRES_METHOD NADI_LAT NADI_LON NADI_CAT NADI_WIND NADI_PRES WELLINGTON_LAT WELLINGTON_LON WELLINGTON_WIND WELLINGTON_PRES DS824_LAT DS824_LON DS824_STAGE DS824_WIND DS824_PRES TD9636_LAT TD9636_LON TD9636_STAGE TD9636_WIND TD9636_PRES TD9635_LAT TD9635_LON TD9635_WIND TD9635_PRES TD9635_ROCI NEUMANN_LAT NEUMANN_LON NEUMANN_CLASS NEUMANN_WIND NEUMANN_PRES MLC_LAT MLC_LON MLC_CLASS MLC_WIND MLC_PRES USA_GUST BOM_GUST BOM_GUST_PER REUNION_GUST REUNION_GUST_PER USA_SEAHGT USA_SEARAD_NE USA_SEARAD_SE USA_SEARAD_SW USA_SEARAD_NW STORM_SPEED STORM_DIR
2003295N09101 2003 92 WP MM NOT_NAMED 2003-10-21 12:00:00 TS 9.10000 101.400 main 153 153 O_____________ jtwc_wp WP232003 9.10000 101.400 TD 25 1002 -1 3 0
2003295N09101 2003 92 WP MM NOT_NAMED 2003-10-21 15:00:00 TS 9.27000 101.400 main 166 166 P_____________ WP232003 9.27000 101.400 TD 25 1002 -1 3 0
2003295N09101 2003 92 WP MM NOT_NAMED 2003-10-21 18:00:00 TS 9.40000 101.400 main 173 173 O_____________ jtwc_wp WP232003 9.40000 101.400 TD 25 1002 -1 1008 130 60 2 0
2003295N09101 2003 92 WP MM NOT_NAMED 2003-10-21 21:00:00 TS 9.46500 101.400 main 177 177 P_____________ WP232003 9.46500 101.400 TD 25 1002 -1 1008 130 60 1 0
2003295N09101 2003 92 WP MM NOT_NAMED 2003-10-22 00:00:00 TS 9.50000 101.400 main 177 177 O_____________ jtwc_wp WP232003 9.50000 101.400 TD 25 1002 -1 1008 130 60 1 16
2003295N09101 2003 92 WP MM NOT_NAMED 2003-10-22 03:00:00 TS 9.55000 101.408 main 181 177 P_____________ WP232003 9.55000 101.408 TD 25 1002 -1 1006 130 60 1 0
2003295N09101 2003 92 WP MM NOT_NAMED 2003-10-22 06:00:00 TS 9.60000 101.400 main 181 181 O_____________ jtwc_wp WP232003 9.60000 101.400 TD 25 1002 -1 1004 130 60 1 332
2003295N09101 2003 92 WP MM NOT_NAMED 2003-10-22 09:00:00 TS 9.64250 101.350 main 181 170 P_____________ WP232003 9.64250 101.350 TD 27 1001 -1 1 317
2003295N09101 2003 92 WP MM NOT_NAMED 2003-10-22 12:00:00 TS 9.70000 101.300 main 173 173 O_____________ jtwc_wp WP232003 9.70000 101.300 TD 30 1000 -1 2 348
2003295N09101 2003 92 WP MM NOT_NAMED 2003-10-22 15:00:00 TS 9.79249 101.307 main 177 177 P_____________ WP232003 9.79249 101.307 TD 27 1001 -1 2 8
2003295N09101 2003 92 WP MM NOT_NAMED 2003-10-22 18:00:00 TS 9.90000 101.300 main 182 177 O_____________ jtwc_wp WP232003 9.90000 101.300 TD 25 1002 -1 2 333
2003295N09101 2003 92 WP MM NOT_NAMED 2003-10-22 21:00:00 TS 9.99251 101.208 main 177 168 P_____________ WP232003 9.99251 101.208 TD 25 1002 -1 3 315
2003295N09101 2003 92 WP MM NOT_NAMED 2003-10-23 00:00:00 TS 10.1000 101.100 main 174 172 O_____________ jtwc_wp WP232003 10.1000 101.100 TD 25 1002 -1 3 326
2003295N09101 2003 92 WP MM NOT_NAMED 2003-10-23 03:00:00 TS 10.2425 101.035 main 172 172 P_____________ WP232003 10.2425 101.035 TD 25 1002 -1 3 343
2003295N09101 2003 92 WP MM NOT_NAMED 2003-10-23 06:00:00 TS 10.4000 101.000 main 173 170 O_____________ jtwc_wp WP232003 10.4000 101.000 TD 25 1002 -1 3 351
2003295N09101 2003 92 WP MM NOT_NAMED 2003-10-23 09:00:00 TS 10.5500 100.985 main 170 162 P_____________ WP232003 10.5500 100.985 TD 25 1002 -1 3 0
2003295N09101 2003 92 WP MM NOT_NAMED 2003-10-23 12:00:00 TS 10.7000 101.000 main 162 159 O_____________ jtwc_wp WP232003 10.7000 101.000 TD 25 1002 -1 1004 130 60 3 14
2003295N09101 2003 92 WP MM NOT_NAMED 2003-10-23 15:00:00 TS 10.8425 101.057 main 169 165 P_____________ WP232003 10.8425 101.057 TD 25 1002 -1 1004 130 60 3 17
2003295N09101 2003 92 WP MM NOT_NAMED 2003-10-23 18:00:00 TS 11.0000 101.100 main 165 157 O_____________ jtwc_wp WP232003 11.0000 101.100 TD 25 1002 -1 1004 130 60 4 4
2003295N09101 2003 92 WP MM NOT_NAMED 2003-10-23 21:00:00 TS 11.2000 101.073 main 157 134 P_____________ WP232003 11.2000 101.073 TD 25 1002 -1 1004 130 55 4 347
2003295N09101 2003 92 WP MM NOT_NAMED 2003-10-24 00:00:00 TS 11.4000 101.000 main 134 123 O_____________ jtwc_wp WP232003 11.4000 101.000 TD 25 1002 -1 1004 130 50 4 339
2003295N09101 2003 92 WP MM NOT_NAMED 2003-10-24 03:00:00 TS 11.5500 100.930 main 123 101 P_____________ WP232003 11.5500 100.930 TD 25 1002 -1 1004 130 50 4 327
2003295N09101 2003 92 WP MM NOT_NAMED 2003-10-24 06:00:00 TS 11.7000 100.800 main 101 73 O_____________ jtwc_wp WP232003 11.7000 100.800 TD 25 1002 -1 1004 130 50 5 316
2003295N09101 2003 92 WP MM NOT_NAMED 2003-10-24 09:00:00 TS 11.8925 100.587 main 73 34 P_____________ WP232003 11.8925 100.587 TD 25 1002 -1 1004 130 50 6 309
2003295N09101 2003 92 WP MM NOT_NAMED 2003-10-24 12:00:00 TS 12.1000 100.300 main 34 0 O_____________ jtwc_wp WP232003 12.1000 100.300 TD 25 1002 -1 1004 130 50 7 307
2003295N09101 2003 92 NI BB NOT_NAMED 2003-10-24 15:00:00 TS 12.3374 99.9876 main 0 0 P_____________ WP232003 12.3374 99.9876 TD 25 1002 -1 8 300
2003295N09101 2003 92 NI BB NOT_NAMED 2003-10-24 18:00:00 TS 12.5000 99.6000 main 0 0 O_____________ jtwc_wp WP232003 12.5000 99.6000 TD 25 1002 -1 8 279
2003295N09101 2003 92 NI BB NOT_NAMED 2003-10-24 21:00:00 TS 12.4724 99.1372 main 0 0 P_____________ WP232003 12.4724 99.1372 TD 25 1002 -1 10 264
2003295N09101 2003 92 NI BB NOT_NAMED 2003-10-25 00:00:00 TS 12.4000 98.6000 main 0 0 O_____________ jtwc_wp WP232003 12.4000 98.6000 TD 25 1002 -1 11 266
2003295N09101 2003 92 NI BB NOT_NAMED 2003-10-25 03:00:00 TS 12.3975 98.0148 main 65 65 P_____________ WP232003 12.3975 98.0148 TD 25 1002 -1 12 275
2003295N09101 2003 92 NI BB NOT_NAMED 2003-10-25 06:00:00 TS 12.5000 97.4000 main 130 130 O_____________ jtwc_wp WP232003 12.5000 97.4000 TD 25 1002 -1 1004 130 50 13 289
2003295N09101 2003 92 NI BB NOT_NAMED 2003-10-25 09:00:00 TS 12.7999 96.7929 main 166 166 P_____________ WP232003 12.7999 96.7929 TD 25 1002 -1 1004 130 50 13 297
2003295N09101 2003 92 NI BB NOT_NAMED 2003-10-25 12:00:00 TS 13.1000 96.2000 main 213 213 O_____________ jtwc_wp WP232003 13.1000 96.2000 TD 25 1002 -1 1004 130 50 12 289
2003295N09101 2003 92 NI BB NOT_NAMED 2003-10-25 15:00:00 TS 13.1949 95.6348 main 274 274 P_____________ WP232003 13.1949 95.6348 TD 25 1002 -1 1004 130 50 11 275
2003295N09101 2003 92 NI BB NOT_NAMED 2003-10-25 18:00:00 TS 13.2000 95.1000 main 280 279 O_____________ jtwc_wp WP232003 13.2000 95.1000 TD 25 1002 -1 1004 130 50 10 270
2003295N09101 2003 92 NI BB NOT_NAMED 2003-10-25 21:00:00 TS 13.1999 94.5774 main 283 283 P_____________ WP232003 13.1999 94.5774 TD 25 1002 -1 1004 130 50 10 270
2003295N09101 2003 92 NI BB NOT_NAMED 2003-10-26 00:00:00 TS 13.2000 94.1000 main 292 292 O_____________ jtwc_wp WP232003 13.2000 94.1000 TD 25 1002 -1 1004 130 50 9 273
2003295N09101 2003 92 NI BB NOT_NAMED 2003-10-26 03:00:00 TS 13.2423 93.6925 main 300 289 P_____________ WP232003 13.2423 93.6925 TD 25 1002 -1 1004 125 50 8 281
2003295N09101 2003 92 NI BB NOT_NAMED 2003-10-26 06:00:00 TS 13.3400 93.3400 25 1004 newdelhi main 303 293 O___O_________ jtwc_wp WP232003 13.3000 93.3000 TD 25 1002 -1 1004 120 50 13.5000 93.5000 D 25 1004 1.50000 8 283
2003295N09101 2003 92 NI BB NOT_NAMED 2003-10-26 09:00:00 TS 13.4267 92.8589 main 313 313 P___P_________ WP232003 13.3424 92.8649 TD 25 1002 -1 1004 120 50 13.5954 92.8468 D 10 281
2003295N09101 2003 92 NI BB NOT_NAMED 2003-10-26 12:00:00 TS 13.5247 92.3171 main 342 341 O___P_________ jtwc_wp WP232003 13.4000 92.4000 TD 25 1002 -1 1004 120 50 13.6909 92.2065 D 11 281
2003295N09101 2003 92 NI BB NOT_NAMED 2003-10-26 15:00:00 TS 13.6331 91.7576 main 372 372 P___P_________ WP232003 13.4773 91.9224 TD 27 1001 -1 1004 120 50 13.7888 91.5928 D 11 282
2003295N09101 2003 92 NI BB NOT_NAMED 2003-10-26 18:00:00 TS 13.7455 91.2097 main 412 405 O___P_________ jtwc_wp WP232003 13.6000 91.4000 TD 30 1000 -1 1004 120 50 13.8911 91.0195 D 11 283
2003295N09101 2003 92 NI BB NOT_NAMED 2003-10-26 21:00:00 TS 13.8850 90.6612 30 1004 newdelhi main 443 443 P___O_________ WP232003 13.7699 90.8224 TD 32 998 -1 1004 120 50 14.0000 90.5000 DD 30 1004 2.00000 4 11 287
2003295N09101 2003 92 NI BB NOT_NAMED 2003-10-27 00:00:00 TS 14.0610 90.1166 main 489 489 O___P_________ jtwc_wp WP232003 14.0000 90.2000 TS 35 997 0 1004 120 50 14.1221 90.0332 DD 30 1004 4 11 290
2003295N09101 2003 92 NI BB NOT_NAMED 2003-10-27 03:00:00 TS 14.2786 89.5654 main 529 529 P___P_________ WP232003 14.2773 89.5723 TS 35 997 0 1004 120 50 14.2800 89.5585 DD 30 1005 4 12 293
2003295N09101 2003 92 NI BB NOT_NAMED 2003-10-27 06:00:00 TS 14.5500 88.9500 30 1006 newdelhi main 579 586 O___O_________ jtwc_wp WP232003 14.6000 88.9000 TS 35 997 0 1004 120 50 14.5000 89.0000 DD 30 1006 2.00000 4 15 293
2003295N09101 2003 92 NI BB NOT_NAMED 2003-10-27 09:00:00 TS 14.8408 88.1653 main 586 493 P___P_________ WP232003 14.9200 88.1572 TS 35 997 0 1004 120 50 14.7616 88.1734 DD 17 292
2003295N09101 2003 92 NI BB NOT_NAMED 2003-10-27 12:00:00 TS 15.1941 87.3068 main 486 395 O___P_________ jtwc_wp WP232003 15.3000 87.4000 TS 35 997 0 1004 120 50 15.0882 87.2137 DD 18 295
2003295N09101 2003 92 NI BB NOT_NAMED 2003-10-27 15:00:00 TS 15.6228 86.4435 main 388 299 P___P_________ WP232003 15.7624 86.6699 TS 35 997 0 1004 120 50 15.4832 86.2170 DD 19 300
2003295N09101 2003 92 NI BB NOT_NAMED 2003-10-27 18:00:00 TS 16.1258 85.6400 main 293 208 O___P_________ jtwc_wp WP232003 16.3000 86.0000 TS 35 997 0 1004 120 50 15.9516 85.2801 DD 18 309
2003295N09101 2003 92 NI BB NOT_NAMED 2003-10-27 21:00:00 TS 16.7413 85.0215 30 1004 newdelhi main 202 123 P___O_________ WP232003 16.9223 85.4126 TS 35 997 0 1004 120 50 16.5000 84.5000 DD 30 1004 2.00000 4 16 321
2003295N09101 2003 92 NI BB NOT_NAMED 2003-10-28 00:00:00 TS 17.3759 84.5790 main 113 45 O___P_________ jtwc_wp WP232003 17.5000 84.9000 TS 35 997 0 1004 120 50 17.1278 83.9369 DD 27 1005 14 326
2003295N09101 2003 92 NI BB NOT_NAMED 2003-10-28 03:00:00 TS 17.8819 84.2297 25 1006 newdelhi main 45 10 P___O_________ WP232003 17.9024 84.4122 TS 32 998 -1 1005 115 45 17.8000 83.5000 D 25 1006 1.50000 10 326
2003295N09101 2003 92 NI BB NOT_NAMED 2003-10-28 06:00:00 TS 18.2000 84.0000 main 10 0 O_____________ jtwc_wp WP232003 18.2000 84.0000 TD 30 1000 -1 1006 110 40 D 8 318
2003295N09101 2003 92 NI BB NOT_NAMED 2003-10-28 09:00:00 TS 18.4576 83.6752 main 0 0 P_____________ WP232003 18.4576 83.6752 TD 30 1000 -1 8 311
2003295N09101 2003 92 NI BB NOT_NAMED 2003-10-28 12:00:00 TS 18.7000 83.4000 main 0 O_____________ jtwc_wp WP232003 18.7000 83.4000 TD 30 1000 -1 7 313

デジタル台風データ・検索

IBTrACS Databaseについて

本データベースは、米国NOAAが公開する1842年以降の世界の熱帯低気圧のベストトラックデータアーカイブInternational Best Track Archive for Climate Stewardship (IBTrACS)を、ウェブで閲覧しやすい形式に変換したものです。

最終更新日:2021-12-01